Time;durP1;ratioP1;P1;durP2;ratioP2;P2;SDS_P1;SDS_P2;PMS_P1;PMS_P2;Temp;Humidity;BMP_temperature;BMP_pressure;BME280_temperature;BME280_humidity;BME280_pressure;Samples;Min_cycle;Max_cycle;Signal;HPM_P1;HPM_P2
2023/12/01 00:01:23;;;;;;;24.90;14.10;;;;;;;-0.24;75.75;98482.40;106560;1254;1002493;-38
2023/12/01 00:03:51;;;;;;;20.90;13.50;;;;;;;-0.26;76.08;98485.20;107251;1260;67645;-38
2023/12/01 00:06:19;;;;;;;22.10;13.70;;;;;;;-0.30;76.14;98496.04;107292;1254;72643;-38
2023/12/01 00:08:46;;;;;;;22.80;14.30;;;;;;;-0.35;76.41;98504.05;107176;1256;60314;-38
2023/12/01 00:11:15;;;;;;;21.20;14.40;;;;;;;-0.38;76.40;98504.27;107213;1256;59231;-38
2023/12/01 00:13:42;;;;;;;20.40;13.60;;;;;;;-0.30;76.63;98492.45;105685;1254;1003545;-38
2023/12/01 00:16:10;;;;;;;20.90;13.50;;;;;;;-0.23;76.50;98492.14;107206;1256;68953;-37
2023/12/01 00:18:37;;;;;;;19.80;13.10;;;;;;;-0.21;76.68;98482.12;107243;1255;72934;-37
2023/12/01 00:21:06;;;;;;;20.50;14.00;;;;;;;-0.23;76.62;98462.11;107281;1255;60425;-37
2023/12/01 00:23:33;;;;;;;21.70;15.30;;;;;;;-0.26;76.92;98442.44;107378;1256;60258;-37
2023/12/01 00:26:01;;;;;;;20.50;13.50;;;;;;;-0.28;76.92;98439.83;107286;1256;73916;-37
2023/12/01 00:28:29;;;;;;;22.50;14.00;;;;;;;-0.28;77.02;98437.85;107435;1260;67641;-37
2023/12/01 00:30:57;;;;;;;23.50;14.50;;;;;;;-0.27;77.04;98437.29;107273;1254;71494;-36
2023/12/01 00:33:25;;;;;;;21.20;15.10;;;;;;;-0.33;77.25;98429.73;107147;1256;60326;-37
2023/12/01 00:35:53;;;;;;;22.90;14.30;;;;;;;-0.38;77.70;98429.77;107198;1260;60175;-37
2023/12/01 00:38:20;;;;;;;23.60;15.00;;;;;;;-0.42;77.93;98437.29;107197;1254;73907;-37
2023/12/01 00:40:48;;;;;;;20.60;14.00;;;;;;;-0.36;78.10;98429.72;107188;1255;67800;-37
2023/12/01 00:43:15;;;;;;;22.20;14.40;;;;;;;-0.26;77.96;98415.73;107280;1256;71412;-37
2023/12/01 00:45:43;;;;;;;24.60;15.60;;;;;;;-0.28;78.22;98417.48;107251;1258;60370;-37
2023/12/01 00:48:10;;;;;;;22.80;14.80;;;;;;;-0.32;78.45;98416.91;107219;1258;59234;-37
2023/12/01 00:50:39;;;;;;;28.10;16.10;;;;;;;-0.35;78.59;98402.54;107237;1256;73894;-37
2023/12/01 00:53:08;;;;;;;22.30;13.90;;;;;;;-0.34;78.98;98396.33;107320;1256;67570;-36
2023/12/01 00:55:36;;;;;;;21.60;14.70;;;;;;;-0.28;78.81;98404.23;107273;1256;72677;-37
2023/12/01 00:58:04;;;;;;;24.80;14.50;;;;;;;-0.26;79.04;98396.63;107273;1256;60206;-37
2023/12/01 01:00:32;;;;;;;21.90;14.30;;;;;;;-0.29;79.33;98392.70;107274;1255;60400;-37
2023/12/01 01:03:00;;;;;;;20.90;13.60;;;;;;;-0.31;79.51;98405.14;107293;1258;73229;-37
2023/12/01 01:05:27;;;;;;;19.90;13.20;;;;;;;-0.27;79.78;98390.95;107296;1256;67599;-36
2023/12/01 01:07:55;;;;;;;22.60;13.90;;;;;;;-0.20;79.31;98374.23;107316;1254;72195;-37
2023/12/01 01:10:23;;;;;;;20.30;14.50;;;;;;;-0.22;79.60;98379.39;107204;1261;60285;-37
2023/12/01 01:12:52;;;;;;;23.10;13.90;;;;;;;-0.25;79.64;98377.58;107318;1254;60581;-37
2023/12/01 01:15:19;;;;;;;20.60;13.40;;;;;;;-0.26;79.77;98385.54;107238;1254;74333;-37
2023/12/01 01:17:47;;;;;;;20.00;13.40;;;;;;;-0.19;79.73;98386.35;107307;1254;66431;-37
2023/12/01 01:20:14;;;;;;;20.80;14.20;;;;;;;-0.13;79.57;98364.33;107290;1254;71208;-37
2023/12/01 01:22:42;;;;;;;21.30;13.80;;;;;;;-0.15;79.85;98367.84;107236;1254;60454;-37
2023/12/01 01:25:09;;;;;;;22.20;14.90;;;;;;;-0.18;80.09;98378.20;107202;1256;60549;-36
2023/12/01 01:27:37;;;;;;;23.30;14.40;;;;;;;-0.20;79.86;98366.01;107236;1254;73872;-37
2023/12/01 01:30:06;;;;;;;20.60;14.10;;;;;;;-0.19;80.22;98351.52;107239;1256;67549;-37
2023/12/01 01:32:33;;;;;;;21.90;14.50;;;;;;;-0.08;79.85;98326.66;107250;1256;73035;-36
2023/12/01 01:35:01;;;;;;;23.60;15.50;;;;;;;-0.06;79.67;98335.38;107320;1254;60307;-37
2023/12/01 01:37:29;;;;;;;21.50;14.20;;;;;;;-0.11;79.66;98341.77;107296;1256;60297;-37
2023/12/01 01:39:56;;;;;;;27.40;16.10;;;;;;;-0.16;79.80;98326.38;107325;1255;73821;-37
2023/12/01 01:42:24;;;;;;;23.00;14.70;;;;;;;-0.18;79.89;98333.45;107240;1256;66781;-37
2023/12/01 01:44:52;;;;;;;22.10;14.40;;;;;;;-0.14;79.81;98321.02;105686;1259;1002970;-37
2023/12/01 01:47:19;;;;;;;22.80;15.20;;;;;;;-0.10;79.89;98304.13;107233;1259;60761;-37
2023/12/01 01:49:47;;;;;;;22.90;15.20;;;;;;;-0.13;80.00;98294.41;107276;1256;60725;-37
2023/12/01 01:52:14;;;;;;;23.60;15.50;;;;;;;-0.19;79.85;98287.73;107305;1253;72603;-37
2023/12/01 01:54:42;;;;;;;24.70;15.60;;;;;;;-0.24;79.87;98295.13;107229;1258;66644;-37
2023/12/01 01:57:09;;;;;;;22.70;15.10;;;;;;;-0.23;79.97;98296.17;107091;1256;72711;-38
2023/12/01 01:59:37;;;;;;;22.20;14.50;;;;;;;-0.19;79.76;98280.52;107137;1254;60400;-38
2023/12/01 02:02:05;;;;;;;23.40;14.70;;;;;;;-0.21;79.97;98280.03;107251;1255;60264;-38
2023/12/01 02:04:33;;;;;;;23.50;15.10;;;;;;;-0.24;80.00;98280.61;107291;1256;72957;-38
2023/12/01 02:07:01;;;;;;;23.30;15.40;;;;;;;-0.26;80.05;98277.84;107283;1254;67431;-38
2023/12/01 02:09:33;;;;;;;22.70;14.50;;;;;;;-0.25;79.95;98279.79;107265;1259;72651;-38
2023/12/01 02:12:01;;;;;;;21.80;13.50;;;;;;;-0.16;79.90;98267.71;107300;1258;60867;-38
2023/12/01 02:14:28;;;;;;;22.30;14.60;;;;;;;-0.10;79.80;98243.85;107334;1256;59673;-38
2023/12/01 02:16:56;;;;;;;23.50;14.20;;;;;;;-0.12;79.49;98248.62;107293;1254;73997;-38
2023/12/01 02:19:24;;;;;;;23.00;14.40;;;;;;;-0.16;79.49;98250.89;107254;1261;67932;-38
2023/12/01 02:21:52;;;;;;;23.10;13.70;;;;;;;-0.19;79.74;98243.08;107185;1254;72716;-38
2023/12/01 02:24:21;;;;;;;19.30;12.80;;;;;;;-0.14;79.83;98242.36;107182;1256;60933;-38
2023/12/01 02:26:48;;;;;;;20.20;12.10;;;;;;;-0.03;79.83;98242.45;107298;1254;60405;-38
2023/12/01 02:29:16;;;;;;;21.10;12.70;;;;;;;0.04;79.63;98238.09;107275;1258;73903;-38
2023/12/01 02:31:43;;;;;;;20.50;12.80;;;;;;;0.06;79.74;98226.60;107244;1254;67578;-38
2023/12/01 02:34:11;;;;;;;21.10;13.40;;;;;;;0.06;79.80;98229.55;107266;1255;72661;-38
2023/12/01 02:36:38;;;;;;;20.00;12.80;;;;;;;0.05;79.60;98229.23;107218;1256;60361;-38
2023/12/01 02:39:08;;;;;;;20.50;12.10;;;;;;;0.07;79.74;98234.81;107283;1259;60035;-38
2023/12/01 02:41:35;;;;;;;20.10;13.30;;;;;;;0.17;79.53;98218.33;107308;1256;73864;-38
2023/12/01 02:44:03;;;;;;;19.20;12.30;;;;;;;0.25;79.28;98220.41;107325;1258;67911;-38
2023/12/01 02:46:33;;;;;;;18.90;12.20;;;;;;;0.26;79.20;98206.35;107221;1256;71574;-38
2023/12/01 02:49:01;;;;;;;19.80;12.50;;;;;;;0.25;79.42;98203.96;107287;1254;60514;-38
2023/12/01 02:51:29;;;;;;;20.00;12.60;;;;;;;0.27;79.47;98202.59;107263;1253;60284;-38
2023/12/01 02:53:56;;;;;;;19.50;13.30;;;;;;;0.25;79.59;98198.86;107266;1253;73874;-38
2023/12/01 02:56:24;;;;;;;20.70;12.40;;;;;;;0.24;79.31;98195.08;107278;1253;67558;-38
2023/12/01 02:58:51;;;;;;;20.40;12.60;;;;;;;0.30;79.18;98202.70;107488;1253;72677;-37
2023/12/01 03:01:19;;;;;;;15.80;11.20;;;;;;;0.40;78.93;98200.05;107358;1254;60302;-37
2023/12/01 03:03:46;;;;;;;21.60;12.10;;;;;;;0.42;78.98;98205.26;107378;1253;59224;-37
2023/12/01 03:06:14;;;;;;;20.90;12.90;;;;;;;0.41;78.95;98199.86;107398;1254;73070;-37
2023/12/01 03:08:42;;;;;;;24.20;14.10;;;;;;;0.37;78.91;98195.73;107339;1258;66287;-37
2023/12/01 03:11:09;;;;;;;19.40;13.10;;;;;;;0.34;79.21;98183.60;107347;1255;71487;-37
2023/12/01 03:13:37;;;;;;;19.00;13.00;;;;;;;0.34;79.21;98184.90;107313;1254;60969;-37
2023/12/01 03:16:05;;;;;;;21.00;12.20;;;;;;;0.44;79.11;98184.38;107315;1255;60371;-37
2023/12/01 03:18:33;;;;;;;17.00;12.00;;;;;;;0.52;78.58;98174.00;107317;1253;72634;-37
2023/12/01 03:21:00;;;;;;;16.70;11.80;;;;;;;0.51;78.68;98172.46;107366;1259;66426;-37
2023/12/01 03:23:28;;;;;;;20.50;13.20;;;;;;;0.48;78.88;98171.88;107207;1253;72730;-37
2023/12/01 03:25:56;;;;;;;21.00;13.20;;;;;;;0.46;79.00;98167.84;107272;1256;60505;-37
2023/12/01 03:28:23;;;;;;;19.00;12.80;;;;;;;0.45;79.07;98162.39;107284;1258;60371;-38
2023/12/01 03:30:51;;;;;;;19.30;12.60;;;;;;;0.43;79.08;98145.33;107332;1254;73916;-38
2023/12/01 03:33:18;;;;;;;17.50;11.90;;;;;;;0.54;78.86;98146.83;107412;1253;68045;-38
2023/12/01 03:35:46;;;;;;;18.70;12.80;;;;;;;0.67;78.65;98148.45;107593;1253;71427;-37
2023/12/01 03:38:13;;;;;;;17.20;12.50;;;;;;;0.70;78.81;98127.29;107540;1255;60520;-37
2023/12/01 03:40:41;;;;;;;20.00;12.90;;;;;;;0.74;78.81;98131.02;107659;1253;60726;-36
2023/12/01 03:43:09;;;;;;;19.00;12.80;;;;;;;0.75;78.56;98133.67;107576;1257;71660;-37
2023/12/01 03:45:37;;;;;;;17.00;12.60;;;;;;;0.74;78.72;98135.02;107735;1256;66331;-38
2023/12/01 03:48:04;;;;;;;21.70;13.50;;;;;;;0.71;78.67;98112.50;107602;1256;71367;-37
2023/12/01 03:50:32;;;;;;;20.30;12.20;;;;;;;0.72;78.72;98104.99;107438;1254;60469;-37
2023/12/01 03:53:00;;;;;;;20.70;12.70;;;;;;;0.81;78.42;98112.84;107573;1257;60372;-37
2023/12/01 03:55:28;;;;;;;17.70;12.40;;;;;;;0.85;78.26;98118.36;107565;1252;73802;-37
2023/12/01 03:57:55;;;;;;;17.80;12.50;;;;;;;0.84;78.42;98118.30;107479;1253;67868;-38
2023/12/01 04:00:23;;;;;;;18.50;12.60;;;;;;;0.81;78.48;98111.05;107359;1257;72691;-37
2023/12/01 04:02:51;;;;;;;19.30;13.60;;;;;;;0.78;78.60;98091.95;107581;1254;60299;-37
2023/12/01 04:05:19;;;;;;;19.10;13.70;;;;;;;0.76;78.90;98078.23;107606;1254;60350;-37
2023/12/01 04:07:53;;;;;;;18.70;12.30;;;;;;;0.75;79.06;98078.11;107522;1259;73927;-37
2023/12/01 04:10:24;;;;;;;18.40;12.00;;;;;;;0.85;78.87;98094.95;107508;1257;67636;-37
2023/12/01 04:12:54;;;;;;;19.80;12.70;;;;;;;0.92;78.43;98094.11;107602;1256;72687;-37
2023/12/01 04:15:25;;;;;;;18.90;12.70;;;;;;;0.87;78.79;98091.81;107406;1255;60361;-37
2023/12/01 04:17:53;;;;;;;19.90;13.60;;;;;;;0.85;78.92;98071.78;107621;1253;60520;-37
2023/12/01 04:20:22;;;;;;;20.50;13.90;;;;;;;0.86;79.11;98040.95;107547;1252;72951;-37
2023/12/01 04:22:58;;;;;;;24.30;14.20;;;;;;;0.85;78.93;98054.48;107602;1257;67568;-37
2023/12/01 04:25:26;;;;;;;21.00;13.50;;;;;;;0.81;78.85;98084.96;107473;1257;72691;-37
2023/12/01 04:27:55;;;;;;;20.20;13.10;;;;;;;0.84;78.68;98099.72;107618;1256;60412;-37
2023/12/01 04:30:23;;;;;;;14.60;9.70;;;;;;;0.84;78.65;98092.00;107593;1254;60374;-37
2023/12/01 04:32:52;;;;;;;19.90;13.50;;;;;;;0.79;78.94;98090.98;107575;1253;73861;-38
2023/12/01 04:35:24;;;;;;;21.80;14.40;;;;;;;0.72;79.24;98072.52;107551;1256;67898;-37
2023/12/01 04:37:52;;;;;;;20.30;14.30;;;;;;;0.72;79.64;98065.05;107659;1256;72794;-38
2023/12/01 04:40:20;;;;;;;22.10;14.30;;;;;;;0.72;79.57;98068.34;107535;1257;60277;-38
2023/12/01 04:42:48;;;;;;;22.50;13.70;;;;;;;0.72;79.31;98064.23;107532;1253;60398;-38
2023/12/01 04:45:18;;;;;;;23.90;14.20;;;;;;;0.79;79.33;98063.86;107563;1260;73977;-38
2023/12/01 04:47:50;;;;;;;18.40;13.70;;;;;;;0.80;79.42;98076.79;107386;1257;67941;-38
2023/12/01 04:50:20;;;;;;;20.30;13.50;;;;;;;0.76;79.36;98080.83;107413;1259;72678;-38
2023/12/01 04:52:55;;;;;;;16.20;10.70;;;;;;;0.72;79.63;98080.60;107325;1253;60479;-38
2023/12/01 04:55:25;;;;;;;20.30;13.80;;;;;;;0.70;79.78;98088.50;107300;1252;60307;-38
2023/12/01 04:57:52;;;;;;;22.30;13.70;;;;;;;0.64;79.81;98079.33;107312;1258;73994;-38
2023/12/01 05:00:22;;;;;;;20.70;13.30;;;;;;;0.71;79.53;98082.08;107316;1258;67653;-38
2023/12/01 05:02:57;;;;;;;20.20;13.30;;;;;;;0.74;79.61;98075.35;107270;1254;73824;-38
2023/12/01 05:05:29;;;;;;;21.90;14.00;;;;;;;0.71;79.74;98084.29;107264;1257;60386;-38
2023/12/01 05:07:58;;;;;;;23.70;14.50;;;;;;;0.65;79.91;98080.79;107417;1254;60611;-38
2023/12/01 05:10:28;;;;;;;23.70;15.60;;;;;;;0.62;80.35;98063.31;107501;1254;72868;-38
2023/12/01 05:12:57;;;;;;;22.00;15.20;;;;;;;0.62;80.62;98062.55;107375;1257;67587;-38
2023/12/01 05:15:25;;;;;;;22.70;14.40;;;;;;;0.62;80.46;98068.70;107454;1259;72781;-38
2023/12/01 05:17:53;;;;;;;20.60;14.00;;;;;;;0.68;80.15;98056.75;107379;1259;60432;-38
2023/12/01 05:20:25;;;;;;;21.60;14.00;;;;;;;0.75;79.93;98051.34;107402;1252;60329;-38
2023/12/01 05:22:55;;;;;;;21.80;14.30;;;;;;;0.73;80.31;98050.06;107471;1254;73925;-36
2023/12/01 05:25:25;;;;;;;21.30;14.30;;;;;;;0.70;80.37;98062.02;107409;1254;68745;-37
2023/12/01 05:27:55;;;;;;;24.30;15.40;;;;;;;0.68;80.31;98067.86;107383;1267;70433;-37
2023/12/01 05:30:24;;;;;;;22.50;14.80;;;;;;;0.64;80.60;98066.52;107492;1254;60305;-37
2023/12/01 05:32:52;;;;;;;23.90;15.30;;;;;;;0.62;80.88;98069.55;107411;1255;60442;-37
2023/12/01 05:35:20;;;;;;;21.90;14.10;;;;;;;0.69;80.61;98082.77;107397;1254;72576;-38
2023/12/01 05:37:50;;;;;;;23.50;15.40;;;;;;;0.80;80.48;98092.33;106665;1257;1003838;-38
2023/12/01 05:40:27;;;;;;;22.20;14.60;;;;;;;0.83;80.62;98098.13;107423;1252;72679;-38
2023/12/01 05:42:56;;;;;;;24.50;16.30;;;;;;;0.80;80.84;98077.15;104326;1257;1003445;-38
2023/12/01 05:45:26;;;;;;;53.10;36.90;;;;;;;0.80;80.80;98049.33;107343;1255;60432;-36
2023/12/01 05:47:54;;;;;;;;;;;;;;;0.79;80.70;98050.73;107359;1254;73507;-38
2023/12/01 05:50:23;;;;;;;23.90;15.50;;;;;;;0.77;80.81;98072.39;107376;1254;68051;-37
2023/12/01 05:52:54;;;;;;;20.70;13.90;;;;;;;0.80;80.40;98056.67;107279;1254;72813;-36
2023/12/01 05:55:22;;;;;;;23.20;15.60;;;;;;;0.82;80.56;98042.33;107384;1259;60309;-37
2023/12/01 05:57:52;;;;;;;19.10;14.30;;;;;;;0.83;80.63;98041.95;107327;1253;60322;-37
2023/12/01 06:00:26;;;;;;;23.40;15.10;;;;;;;0.79;80.46;98061.29;107330;1254;73939;-37
2023/12/01 06:02:55;;;;;;;23.30;14.60;;;;;;;0.76;80.88;98070.97;107341;1259;66101;-37
2023/12/01 06:05:22;;;;;;;23.90;15.30;;;;;;;0.71;80.70;98062.27;107453;1254;71460;-37
2023/12/01 06:08:00;;;;;;;21.00;15.30;;;;;;;0.73;80.60;98049.10;107336;1260;60415;-37
2023/12/01 06:10:28;;;;;;;23.30;15.30;;;;;;;0.79;80.44;98021.02;107537;1254;60050;-37
2023/12/01 06:12:56;;;;;;;21.60;14.90;;;;;;;0.78;80.67;98025.86;107351;1254;73860;-37
2023/12/01 06:15:26;;;;;;;22.60;15.10;;;;;;;0.73;80.66;98047.34;107377;1255;67558;-37
2023/12/01 06:17:53;;;;;;;23.50;15.80;;;;;;;0.66;80.68;98048.44;107361;1258;72704;-37
2023/12/01 06:20:22;;;;;;;23.20;15.60;;;;;;;0.59;81.10;98043.30;107363;1260;60533;-37
2023/12/01 06:22:52;;;;;;;20.60;14.00;;;;;;;0.64;81.01;98043.71;107487;1252;60285;-37
2023/12/01 06:25:20;;;;;;;24.30;15.40;;;;;;;0.72;80.84;98040.58;107386;1254;71759;-37
2023/12/01 06:27:49;;;;;;;24.20;15.70;;;;;;;0.72;80.96;98048.61;107363;1254;68255;-37
2023/12/01 06:30:17;;;;;;;25.40;16.80;;;;;;;0.69;81.21;98041.33;107466;1257;72687;-37
2023/12/01 06:32:45;;;;;;;22.40;15.20;;;;;;;0.72;81.49;98045.70;107321;1256;60428;-37
2023/12/01 06:35:14;;;;;;;24.70;15.60;;;;;;;0.71;81.15;98050.09;107508;1254;60408;-37
2023/12/01 06:37:43;;;;;;;22.00;14.00;;;;;;;0.72;80.73;98053.10;106603;1254;1003030;-37
2023/12/01 06:40:16;;;;;;;22.00;14.10;;;;;;;0.80;80.76;98047.13;107353;1254;68080;-37
2023/12/01 06:42:44;;;;;;;23.20;15.00;;;;;;;0.78;80.56;98042.54;107449;1254;72688;-37
2023/12/01 06:45:13;;;;;;;24.60;15.30;;;;;;;0.73;81.11;98051.61;107389;1253;60538;-37
2023/12/01 06:47:42;;;;;;;25.20;16.00;;;;;;;0.71;81.10;98065.10;107456;1254;60540;-37
2023/12/01 06:50:14;;;;;;;24.10;16.00;;;;;;;0.70;81.22;98066.29;107475;1253;72614;-37
2023/12/01 06:52:43;;;;;;;22.70;15.30;;;;;;;0.71;81.29;98035.27;107397;1254;67929;-37
2023/12/01 06:55:11;;;;;;;22.80;15.00;;;;;;;0.80;80.95;98036.83;107486;1257;72681;-37
2023/12/01 06:57:41;;;;;;;22.20;13.80;;;;;;;0.85;80.57;98057.13;107425;1254;60313;-37
2023/12/01 07:00:10;;;;;;;23.40;15.40;;;;;;;0.81;80.82;98057.60;107468;1261;60484;-37
2023/12/01 07:02:37;;;;;;;23.30;16.80;;;;;;;0.75;81.01;98035.68;107479;1253;72577;-37
2023/12/01 07:05:06;;;;;;;26.10;18.10;;;;;;;0.74;81.40;98054.04;107319;1259;67702;-37
2023/12/01 07:07:34;;;;;;;27.30;17.30;;;;;;;0.71;81.14;98069.52;107372;1257;72086;-37
2023/12/01 07:10:01;;;;;;;27.70;17.20;;;;;;;0.76;81.22;98064.58;107427;1254;60997;-39
2023/12/01 07:12:29;;;;;;;27.60;16.80;;;;;;;0.84;81.01;98048.19;107421;1254;60507;-38
2023/12/01 07:14:56;;;;;;;26.80;17.00;;;;;;;0.84;80.75;98059.67;107446;1258;72937;-39
2023/12/01 07:17:24;;;;;;;24.90;15.50;;;;;;;0.81;81.11;98063.19;107405;1256;67610;-36
2023/12/01 07:19:52;;;;;;;23.40;16.00;;;;;;;0.80;81.01;98035.29;107452;1254;72687;-37
2023/12/01 07:22:19;;;;;;;26.60;15.90;;;;;;;0.75;81.11;98024.39;107351;1257;60988;-37
2023/12/01 07:24:47;;;;;;;25.10;15.80;;;;;;;0.81;81.01;98029.33;107276;1254;60311;-36
2023/12/01 07:27:14;;;;;;;23.10;15.30;;;;;;;0.90;80.79;98043.89;107250;1254;73541;-37
2023/12/01 07:29:42;;;;;;;24.20;16.10;;;;;;;0.93;81.08;98020.60;107281;1260;67785;-37
2023/12/01 07:32:09;;;;;;;29.70;16.50;;;;;;;0.97;81.15;97999.61;107348;1254;71552;-37
2023/12/01 07:34:37;;;;;;;28.60;17.50;;;;;;;1.01;81.02;98007.36;107296;1257;60536;-37
2023/12/01 07:37:10;;;;;;;25.90;16.00;;;;;;;1.02;80.84;98016.01;107303;1253;60563;-37
2023/12/01 07:39:38;;;;;;;26.20;16.30;;;;;;;1.10;80.53;98006.31;107415;1254;72515;-37
2023/12/01 07:42:06;;;;;;;25.60;16.30;;;;;;;1.18;79.89;98006.51;107379;1254;66845;-37
2023/12/01 07:44:33;;;;;;;24.90;16.00;;;;;;;1.19;79.85;98010.98;107268;1257;71438;-37
2023/12/01 07:47:24;;;;;;;27.60;18.00;;;;;;;1.19;79.91;98005.94;106693;1257;1003124;-39
2023/12/01 07:52:49;;;;;;;27.10;17.00;;;;;;;1.11;79.72;98010.98;104213;1293;601601;-40
2023/12/01 07:55:19;;;;;;;26.60;16.30;;;;;;;1.16;79.71;98013.84;106531;1266;61286;-40
2023/12/01 07:57:47;;;;;;;29.10;16.80;;;;;;;1.26;79.55;98025.71;106451;1272;59353;-39
2023/12/01 08:00:16;;;;;;;25.10;17.00;;;;;;;1.29;79.64;98045.80;106519;1267;72257;-39
2023/12/01 08:02:48;;;;;;;28.20;17.20;;;;;;;1.27;79.46;98048.38;106619;1267;67640;-40
2023/12/01 08:05:16;;;;;;;24.10;17.30;;;;;;;1.23;79.30;98042.91;106641;1267;72851;-40
2023/12/01 08:07:46;;;;;;;26.30;16.20;;;;;;;1.20;79.77;98049.90;106465;1269;59371;-40
2023/12/01 08:10:17;;;;;;;24.20;16.40;;;;;;;1.28;79.38;98045.29;106706;1269;59430;-40
2023/12/01 08:12:45;;;;;;;28.20;16.60;;;;;;;1.37;79.29;98057.30;105981;1269;1003095;-40
2023/12/01 08:15:13;;;;;;;28.20;17.70;;;;;;;1.36;79.44;98063.08;106720;1269;70239;-40
2023/12/01 08:17:42;;;;;;;27.10;18.20;;;;;;;1.34;79.45;98054.96;106719;1267;72673;-40
2023/12/01 08:20:11;;;;;;;26.80;19.00;;;;;;;1.38;79.63;98046.29;106677;1267;59768;-40
2023/12/01 08:22:39;;;;;;;27.70;17.90;;;;;;;1.44;79.84;98029.72;106765;1264;59650;-40
2023/12/01 08:25:08;;;;;;;26.20;17.30;;;;;;;1.61;79.29;98037.13;106748;1269;73065;-40
2023/12/01 08:27:36;;;;;;;28.60;17.70;;;;;;;1.72;78.32;98038.56;106741;1264;67896;-39
2023/12/01 08:30:04;;;;;;;24.20;17.00;;;;;;;1.73;78.20;98040.89;106725;1269;71918;-40
2023/12/01 08:32:32;;;;;;;29.80;19.10;;;;;;;1.74;78.25;98040.84;106765;1264;59493;-40
2023/12/01 08:35:01;;;;;;;27.90;18.30;;;;;;;1.73;77.78;98047.48;106800;1266;59630;-40
2023/12/01 08:37:29;;;;;;;27.60;18.00;;;;;;;1.72;77.87;98060.41;106755;1264;73082;-40
2023/12/01 08:39:56;;;;;;;25.60;17.30;;;;;;;1.70;77.74;98055.02;106692;1264;65850;-40
2023/12/01 08:42:24;;;;;;;27.30;17.20;;;;;;;1.82;77.63;98029.64;107436;1257;72685;-40
2023/12/01 08:44:52;;;;;;;26.80;17.30;;;;;;;1.93;77.38;98021.82;107426;1257;59586;-39
2023/12/01 08:47:21;;;;;;;26.80;18.10;;;;;;;1.98;76.71;98034.19;107461;1254;59532;-40
2023/12/01 08:49:54;;;;;;;28.60;17.80;;;;;;;1.94;76.33;98038.35;107450;1253;73082;-40
2023/12/01 08:52:22;;;;;;;29.10;18.30;;;;;;;1.88;76.50;98043.83;107446;1254;67592;-40
2023/12/01 08:54:49;;;;;;;26.90;17.60;;;;;;;1.85;76.58;98025.91;107370;1254;71089;-40
2023/12/01 08:57:17;;;;;;;25.80;17.70;;;;;;;1.89;76.22;98030.32;107328;1254;59634;-39
2023/12/01 08:59:44;;;;;;;24.90;18.00;;;;;;;1.94;75.82;98043.15;107437;1257;60101;-40
2023/12/01 09:02:12;;;;;;;26.30;17.60;;;;;;;1.92;76.07;98054.26;107546;1254;73411;-40
2023/12/01 09:04:41;;;;;;;26.10;18.40;;;;;;;1.91;76.00;98043.29;107427;1254;69148;-40
2023/12/01 09:07:09;;;;;;;27.50;18.60;;;;;;;1.87;75.80;98041.42;107449;1253;74885;-40
2023/12/01 09:09:36;;;;;;;26.00;18.70;;;;;;;1.81;76.00;98044.18;107465;1254;59625;-40
2023/12/01 09:12:05;;;;;;;28.10;18.30;;;;;;;1.79;76.21;98043.36;107431;1254;59890;-40
2023/12/01 09:14:32;;;;;;;28.00;18.20;;;;;;;1.87;75.94;98042.09;107588;1255;72944;-40
2023/12/01 09:17:00;;;;;;;26.30;17.80;;;;;;;1.91;75.68;98043.70;107573;1254;70160;-40
2023/12/01 09:19:27;;;;;;;26.20;17.80;;;;;;;1.91;75.70;98040.92;107475;1254;73054;-39
2023/12/01 09:21:55;;;;;;;28.50;18.70;;;;;;;1.90;75.79;98046.63;107437;1254;59646;-39
2023/12/01 09:24:23;;;;;;;31.60;20.30;;;;;;;1.86;75.74;98029.77;107466;1254;59591;-39
2023/12/01 09:26:52;;;;;;;29.00;18.10;;;;;;;1.81;75.75;98024.72;107432;1254;73068;-40
2023/12/01 09:29:20;;;;;;;26.20;18.00;;;;;;;1.86;75.71;98031.98;106722;1254;1003006;-40
2023/12/01 09:31:48;;;;;;;25.30;18.70;;;;;;;1.96;75.81;98032.60;107462;1254;71462;-39
2023/12/01 09:34:16;;;;;;;25.80;17.60;;;;;;;2.02;76.21;98029.83;107465;1254;59606;-40
2023/12/01 09:36:43;;;;;;;25.60;17.90;;;;;;;2.10;75.95;98028.38;107466;1254;59955;-40
2023/12/01 09:39:11;;;;;;;27.90;18.60;;;;;;;2.11;75.65;98021.55;107458;1254;75210;-40
2023/12/01 09:41:39;;;;;;;25.70;17.80;;;;;;;2.08;75.33;98030.48;107503;1254;66747;-39
2023/12/01 09:44:07;;;;;;;24.10;16.90;;;;;;;2.03;74.99;98029.25;107431;1254;71495;-40
2023/12/01 09:46:41;;;;;;;25.90;16.90;;;;;;;2.09;74.99;98032.17;107270;1254;61275;-40
2023/12/01 09:49:08;;;;;;;27.50;18.20;;;;;;;2.13;74.56;98059.57;107476;1254;60436;-40
2023/12/01 09:51:36;;;;;;;27.00;18.40;;;;;;;2.10;74.81;98075.14;107351;1254;73224;-39
2023/12/01 09:54:04;;;;;;;28.40;18.50;;;;;;;2.07;74.99;98080.53;107289;1254;66938;-39
2023/12/01 09:56:32;;;;;;;27.10;18.30;;;;;;;2.03;74.97;98079.19;107414;1258;72672;-39
2023/12/01 09:59:00;;;;;;;26.20;17.80;;;;;;;2.01;75.02;98082.34;107450;1254;59647;-40
2023/12/01 10:01:27;;;;;;;25.80;17.30;;;;;;;1.99;75.16;98080.44;107430;1260;59773;-39
2023/12/01 10:03:56;;;;;;;24.20;17.30;;;;;;;2.05;74.91;98076.19;107461;1253;71821;-39
2023/12/01 10:06:24;;;;;;;25.90;17.80;;;;;;;2.14;74.98;98063.86;107441;1254;68404;-39
2023/12/01 10:08:52;;;;;;;27.40;17.90;;;;;;;2.23;75.16;98061.31;107433;1258;71076;-39
2023/12/01 10:11:21;;;;;;;26.60;18.30;;;;;;;2.32;75.28;98060.45;107344;1258;59206;-39
2023/12/01 10:13:49;;;;;;;29.90;19.10;;;;;;;2.40;74.56;98066.55;107505;1254;60040;-39
2023/12/01 10:16:18;;;;;;;26.90;18.30;;;;;;;2.41;74.01;98059.63;107352;1254;71916;-40
2023/12/01 10:18:59;;;;;;;28.70;19.20;;;;;;;2.36;73.72;98071.33;107430;1253;67308;-40
2023/12/01 10:21:40;;;;;;;24.10;17.60;;;;;;;2.39;73.64;98071.81;107341;1259;73082;-40
2023/12/01 10:24:14;;;;;;;;;;;;;;;2.41;73.73;98065.92;107561;1254;59679;-40
2023/12/01 10:26:43;;;;;;;30.70;19.20;;;;;;;2.39;73.74;98075.62;107592;1254;59324;-40
2023/12/01 10:29:30;;;;;;;29.60;20.00;;;;;;;2.37;73.90;98084.06;107433;1254;71264;-39
2023/12/01 10:32:04;;;;;;;32.10;19.70;;;;;;;2.38;74.13;98085.45;107438;1259;67456;-40
2023/12/01 10:34:32;;;;;;;29.00;18.90;;;;;;;2.42;73.92;98089.33;107486;1254;71457;-40
2023/12/01 10:37:00;;;;;;;28.60;18.90;;;;;;;2.44;73.72;98080.52;107448;1258;59674;-41
2023/12/01 10:39:29;;;;;;;26.80;18.50;;;;;;;2.56;73.49;98083.88;107448;1253;60522;-40
2023/12/01 10:41:57;;;;;;;31.00;19.50;;;;;;;2.62;73.13;98082.64;107791;1254;72987;-40
2023/12/01 10:44:31;;;;;;;29.60;20.40;;;;;;;2.61;72.75;98062.99;107463;1253;66684;-40
2023/12/01 10:46:59;;;;;;;31.60;19.80;;;;;;;2.62;72.80;98067.61;107451;1254;72030;-40
2023/12/01 10:49:27;;;;;;;29.70;19.80;;;;;;;2.62;72.20;98082.12;107436;1254;59637;-40
2023/12/01 10:51:56;;;;;;;28.30;20.30;;;;;;;2.56;72.00;98087.06;107533;1254;59598;-41
2023/12/01 10:54:26;;;;;;;30.20;19.10;;;;;;;2.46;72.18;98087.70;107438;1254;72523;-40
2023/12/01 10:57:11;;;;;;;26.50;18.50;;;;;;;2.37;72.00;98091.30;107483;1254;66606;-40
2023/12/01 10:59:38;;;;;;;24.90;18.20;;;;;;;2.34;72.24;98096.11;107447;1260;72674;-40
2023/12/01 11:02:06;;;;;;;27.80;18.60;;;;;;;2.32;72.41;98101.69;107274;1254;59749;-40
2023/12/01 11:04:34;;;;;;;26.90;18.60;;;;;;;2.27;72.71;98107.73;107465;1254;60055;-40
2023/12/01 11:07:45;;;;;;;28.80;18.70;;;;;;;2.22;72.50;98120.33;107436;1254;71811;-40
2023/12/01 11:10:26;;;;;;;27.40;19.30;;;;;;;2.15;72.59;98121.34;107448;1254;68344;-40
2023/12/01 11:13:17;;;;;;;28.80;19.70;;;;;;;2.05;72.80;98121.65;107530;1253;72796;-40
2023/12/01 11:15:45;;;;;;;27.50;18.10;;;;;;;1.99;72.99;98131.39;107553;1257;60550;-40
2023/12/01 11:18:13;;;;;;;26.20;18.30;;;;;;;2.09;73.09;98143.46;107734;1253;60055;-40
2023/12/01 11:20:43;;;;;;;27.90;18.70;;;;;;;2.14;72.76;98129.72;107405;1254;72936;-40
2023/12/01 11:23:13;;;;;;;26.50;18.90;;;;;;;2.12;72.99;98108.65;107610;1254;66508;-40
2023/12/01 11:25:48;;;;;;;26.60;19.30;;;;;;;2.14;73.50;98095.21;107468;1254;73035;-40